sensor_id;sensor_type;location;lat;lon;timestamp;P1;durP1;ratioP1;P2;durP2;ratioP2
17812;SDS011;9030;50.792;8.320;2022-12-08T00:00:04;25.90;;;21.10;;
17812;SDS011;9030;50.792;8.320;2022-12-08T00:02:38;26.73;;;20.67;;
17812;SDS011;9030;50.792;8.320;2022-12-08T00:08:22;22.00;;;17.07;;
17812;SDS011;9030;50.792;8.320;2022-12-08T00:11:17;23.07;;;18.50;;
17812;SDS011;9030;50.792;8.320;2022-12-08T00:13:54;18.97;;;16.90;;
17812;SDS011;9030;50.792;8.320;2022-12-08T00:16:52;27.00;;;19.87;;
17812;SDS011;9030;50.792;8.320;2022-12-08T00:22:32;27.63;;;21.83;;
17812;SDS011;9030;50.792;8.320;2022-12-08T00:25:05;32.20;;;25.30;;
17812;SDS011;9030;50.792;8.320;2022-12-08T00:27:38;24.33;;;21.87;;
17812;SDS011;9030;50.792;8.320;2022-12-08T00:36:23;28.30;;;23.80;;
17812;SDS011;9030;50.792;8.320;2022-12-08T00:39:21;34.13;;;27.20;;
17812;SDS011;9030;50.792;8.320;2022-12-08T00:42:08;33.70;;;27.67;;
17812;SDS011;9030;50.792;8.320;2022-12-08T00:44:52;30.30;;;25.60;;
17812;SDS011;9030;50.792;8.320;2022-12-08T00:56:40;38.90;;;30.63;;
17812;SDS011;9030;50.792;8.320;2022-12-08T00:59:20;44.23;;;32.93;;
17812;SDS011;9030;50.792;8.320;2022-12-08T01:05:13;42.23;;;33.43;;
17812;SDS011;9030;50.792;8.320;2022-12-08T01:08:04;42.47;;;34.50;;
17812;SDS011;9030;50.792;8.320;2022-12-08T01:10:45;47.73;;;36.77;;
17812;SDS011;9030;50.792;8.320;2022-12-08T01:16:36;38.07;;;33.17;;
17812;SDS011;9030;50.792;8.320;2022-12-08T01:19:07;40.90;;;34.20;;
17812;SDS011;9030;50.792;8.320;2022-12-08T01:21:58;46.70;;;33.70;;
17812;SDS011;9030;50.792;8.320;2022-12-08T01:24:31;40.33;;;35.17;;
17812;SDS011;9030;50.792;8.320;2022-12-08T01:27:04;37.20;;;33.20;;
17812;SDS011;9030;50.792;8.320;2022-12-08T01:29:53;37.30;;;30.80;;
17812;SDS011;9030;50.792;8.320;2022-12-08T01:32:36;48.00;;;36.90;;
17812;SDS011;9030;50.792;8.320;2022-12-08T01:35:19;34.93;;;31.60;;
17812;SDS011;9030;50.792;8.320;2022-12-08T01:38:08;35.67;;;31.83;;
17812;SDS011;9030;50.792;8.320;2022-12-08T01:44:48;41.50;;;35.77;;
17812;SDS011;9030;50.792;8.320;2022-12-08T01:46:59;35.90;;;32.00;;
17812;SDS011;9030;50.792;8.320;2022-12-08T01:49:28;39.40;;;33.83;;
17812;SDS011;9030;50.792;8.320;2022-12-08T01:51:57;38.10;;;32.33;;
17812;SDS011;9030;50.792;8.320;2022-12-08T01:54:25;33.60;;;30.10;;
17812;SDS011;9030;50.792;8.320;2022-12-08T01:57:06;40.33;;;33.37;;
17812;SDS011;9030;50.792;8.320;2022-12-08T01:59:58;45.77;;;36.30;;
17812;SDS011;9030;50.792;8.320;2022-12-08T02:05:46;37.33;;;33.20;;
17812;SDS011;9030;50.792;8.320;2022-12-08T02:08:42;38.27;;;30.07;;
17812;SDS011;9030;50.792;8.320;2022-12-08T02:11:29;34.20;;;29.27;;
17812;SDS011;9030;50.792;8.320;2022-12-08T02:14:24;35.03;;;30.33;;
17812;SDS011;9030;50.792;8.320;2022-12-08T02:23:39;37.20;;;29.77;;
17812;SDS011;9030;50.792;8.320;2022-12-08T02:38:51;38.23;;;27.10;;
17812;SDS011;9030;50.792;8.320;2022-12-08T02:44:16;27.60;;;23.53;;
17812;SDS011;9030;50.792;8.320;2022-12-08T02:47:01;27.33;;;20.57;;
17812;SDS011;9030;50.792;8.320;2022-12-08T02:49:31;25.57;;;22.73;;
17812;SDS011;9030;50.792;8.320;2022-12-08T02:58:06;30.53;;;22.70;;
17812;SDS011;9030;50.792;8.320;2022-12-08T03:00:52;32.27;;;25.03;;
17812;SDS011;9030;50.792;8.320;2022-12-08T03:03:38;32.97;;;25.90;;
17812;SDS011;9030;50.792;8.320;2022-12-08T03:06:16;38.00;;;27.80;;
17812;SDS011;9030;50.792;8.320;2022-12-08T03:08:47;27.67;;;23.17;;
17812;SDS011;9030;50.792;8.320;2022-12-08T03:11:18;31.13;;;24.73;;
17812;SDS011;9030;50.792;8.320;2022-12-08T03:13:49;41.30;;;28.07;;
17812;SDS011;9030;50.792;8.320;2022-12-08T03:19:18;38.53;;;30.80;;
17812;SDS011;9030;50.792;8.320;2022-12-08T03:21:59;42.93;;;31.63;;
17812;SDS011;9030;50.792;8.320;2022-12-08T03:30:39;28.37;;;25.37;;
17812;SDS011;9030;50.792;8.320;2022-12-08T03:33:10;30.23;;;26.53;;
17812;SDS011;9030;50.792;8.320;2022-12-08T03:35:40;36.57;;;30.03;;
17812;SDS011;9030;50.792;8.320;2022-12-08T03:38:09;35.40;;;29.67;;
17812;SDS011;9030;50.792;8.320;2022-12-08T03:40:36;31.77;;;26.53;;
17812;SDS011;9030;50.792;8.320;2022-12-08T03:43:04;31.97;;;28.50;;
17812;SDS011;9030;50.792;8.320;2022-12-08T03:45:32;31.23;;;25.23;;
17812;SDS011;9030;50.792;8.320;2022-12-08T03:48:01;29.53;;;23.63;;
17812;SDS011;9030;50.792;8.320;2022-12-08T03:50:28;38.50;;;25.70;;
17812;SDS011;9030;50.792;8.320;2022-12-08T03:52:56;36.37;;;23.90;;
17812;SDS011;9030;50.792;8.320;2022-12-08T03:55:23;31.33;;;25.10;;
17812;SDS011;9030;50.792;8.320;2022-12-08T03:58:03;28.20;;;24.67;;
17812;SDS011;9030;50.792;8.320;2022-12-08T04:00:31;32.87;;;23.57;;
17812;SDS011;9030;50.792;8.320;2022-12-08T04:02:58;28.17;;;20.80;;
17812;SDS011;9030;50.792;8.320;2022-12-08T04:05:34;22.80;;;18.80;;
17812;SDS011;9030;50.792;8.320;2022-12-08T04:08:13;35.33;;;23.40;;
17812;SDS011;9030;50.792;8.320;2022-12-08T04:11:02;25.70;;;20.33;;
17812;SDS011;9030;50.792;8.320;2022-12-08T04:13:43;28.07;;;22.67;;
17812;SDS011;9030;50.792;8.320;2022-12-08T04:16:27;28.17;;;20.17;;
17812;SDS011;9030;50.792;8.320;2022-12-08T04:19:25;33.27;;;21.70;;
17812;SDS011;9030;50.792;8.320;2022-12-08T04:22:10;26.33;;;18.33;;
17812;SDS011;9030;50.792;8.320;2022-12-08T04:24:53;23.63;;;18.23;;
17812;SDS011;9030;50.792;8.320;2022-12-08T04:27:28;28.43;;;20.40;;
17812;SDS011;9030;50.792;8.320;2022-12-08T04:29:55;26.93;;;20.30;;
17812;SDS011;9030;50.792;8.320;2022-12-08T04:32:23;26.13;;;18.77;;
17812;SDS011;9030;50.792;8.320;2022-12-08T04:34:50;22.20;;;18.23;;
17812;SDS011;9030;50.792;8.320;2022-12-08T04:37:19;26.73;;;21.50;;
17812;SDS011;9030;50.792;8.320;2022-12-08T04:39:57;26.17;;;20.33;;
17812;SDS011;9030;50.792;8.320;2022-12-08T04:42:42;24.53;;;20.53;;
17812;SDS011;9030;50.792;8.320;2022-12-08T04:48:02;23.20;;;20.33;;
17812;SDS011;9030;50.792;8.320;2022-12-08T04:50:29;28.87;;;21.37;;
17812;SDS011;9030;50.792;8.320;2022-12-08T04:52:57;21.23;;;18.87;;
17812;SDS011;9030;50.792;8.320;2022-12-08T04:55:25;22.73;;;17.40;;
17812;SDS011;9030;50.792;8.320;2022-12-08T04:57:52;23.77;;;18.87;;
17812;SDS011;9030;50.792;8.320;2022-12-08T05:00:30;24.33;;;16.60;;
17812;SDS011;9030;50.792;8.320;2022-12-08T05:02:57;23.30;;;15.97;;
17812;SDS011;9030;50.792;8.320;2022-12-08T05:05:25;23.10;;;18.67;;
17812;SDS011;9030;50.792;8.320;2022-12-08T05:07:52;18.67;;;15.93;;
17812;SDS011;9030;50.792;8.320;2022-12-08T05:10:20;20.63;;;16.97;;
17812;SDS011;9030;50.792;8.320;2022-12-08T05:12:48;23.97;;;18.77;;
17812;SDS011;9030;50.792;8.320;2022-12-08T05:15:15;21.67;;;17.47;;
17812;SDS011;9030;50.792;8.320;2022-12-08T05:17:42;19.90;;;16.00;;
17812;SDS011;9030;50.792;8.320;2022-12-08T05:20:10;22.20;;;16.07;;
17812;SDS011;9030;50.792;8.320;2022-12-08T05:22:37;23.40;;;16.57;;
17812;SDS011;9030;50.792;8.320;2022-12-08T05:25:05;21.90;;;17.13;;
17812;SDS011;9030;50.792;8.320;2022-12-08T05:27:33;25.87;;;17.80;;
17812;SDS011;9030;50.792;8.320;2022-12-08T05:30:00;21.30;;;16.40;;
17812;SDS011;9030;50.792;8.320;2022-12-08T05:32:28;23.30;;;15.73;;
17812;SDS011;9030;50.792;8.320;2022-12-08T05:34:55;23.50;;;18.83;;
17812;SDS011;9030;50.792;8.320;2022-12-08T05:37:22;18.50;;;13.57;;
17812;SDS011;9030;50.792;8.320;2022-12-08T05:39:49;23.90;;;17.20;;
17812;SDS011;9030;50.792;8.320;2022-12-08T05:42:17;27.50;;;19.93;;
17812;SDS011;9030;50.792;8.320;2022-12-08T05:44:48;22.97;;;17.27;;
17812;SDS011;9030;50.792;8.320;2022-12-08T05:47:15;23.67;;;19.43;;
17812;SDS011;9030;50.792;8.320;2022-12-08T05:49:43;22.87;;;16.13;;
17812;SDS011;9030;50.792;8.320;2022-12-08T05:52:10;29.43;;;18.30;;
17812;SDS011;9030;50.792;8.320;2022-12-08T05:54:37;20.77;;;18.50;;
17812;SDS011;9030;50.792;8.320;2022-12-08T05:57:04;29.37;;;18.60;;
17812;SDS011;9030;50.792;8.320;2022-12-08T05:59:32;20.13;;;15.67;;
17812;SDS011;9030;50.792;8.320;2022-12-08T06:02:01;22.10;;;14.47;;
17812;SDS011;9030;50.792;8.320;2022-12-08T06:04:28;21.47;;;14.97;;
17812;SDS011;9030;50.792;8.320;2022-12-08T06:06:55;28.53;;;15.93;;
17812;SDS011;9030;50.792;8.320;2022-12-08T06:09:22;21.97;;;15.53;;
17812;SDS011;9030;50.792;8.320;2022-12-08T06:11:50;20.90;;;15.37;;
17812;SDS011;9030;50.792;8.320;2022-12-08T06:14:17;19.13;;;13.40;;
17812;SDS011;9030;50.792;8.320;2022-12-08T06:16:44;18.67;;;12.83;;
17812;SDS011;9030;50.792;8.320;2022-12-08T06:19:14;21.37;;;14.93;;
17812;SDS011;9030;50.792;8.320;2022-12-08T06:21:41;24.23;;;15.10;;
17812;SDS011;9030;50.792;8.320;2022-12-08T06:24:08;21.77;;;15.13;;
17812;SDS011;9030;50.792;8.320;2022-12-08T06:26:35;22.80;;;15.10;;
17812;SDS011;9030;50.792;8.320;2022-12-08T06:29:04;22.63;;;16.13;;
17812;SDS011;9030;50.792;8.320;2022-12-08T06:31:31;19.10;;;14.73;;
17812;SDS011;9030;50.792;8.320;2022-12-08T06:33:58;18.73;;;13.20;;
17812;SDS011;9030;50.792;8.320;2022-12-08T06:45:30;22.03;;;14.67;;
17812;SDS011;9030;50.792;8.320;2022-12-08T06:47:57;16.33;;;11.07;;
17812;SDS011;9030;50.792;8.320;2022-12-08T06:50:26;23.03;;;17.73;;
17812;SDS011;9030;50.792;8.320;2022-12-08T06:52:53;24.10;;;19.83;;
17812;SDS011;9030;50.792;8.320;2022-12-08T06:55:20;23.30;;;19.63;;
17812;SDS011;9030;50.792;8.320;2022-12-08T06:57:47;18.17;;;13.80;;
17812;SDS011;9030;50.792;8.320;2022-12-08T07:00:15;23.80;;;17.83;;
17812;SDS011;9030;50.792;8.320;2022-12-08T07:02:44;29.10;;;24.63;;
17812;SDS011;9030;50.792;8.320;2022-12-08T07:05:11;20.93;;;14.73;;
17812;SDS011;9030;50.792;8.320;2022-12-08T07:07:38;24.80;;;20.00;;
17812;SDS011;9030;50.792;8.320;2022-12-08T07:10:06;20.10;;;12.27;;
17812;SDS011;9030;50.792;8.320;2022-12-08T07:12:33;15.50;;;11.77;;
17812;SDS011;9030;50.792;8.320;2022-12-08T07:15:00;17.07;;;10.60;;
17812;SDS011;9030;50.792;8.320;2022-12-08T07:17:27;16.00;;;12.30;;
17812;SDS011;9030;50.792;8.320;2022-12-08T07:19:55;16.60;;;10.37;;
17812;SDS011;9030;50.792;8.320;2022-12-08T07:22:23;17.70;;;10.73;;
17812;SDS011;9030;50.792;8.320;2022-12-08T07:24:50;18.70;;;13.17;;
17812;SDS011;9030;50.792;8.320;2022-12-08T07:27:17;18.50;;;14.03;;
17812;SDS011;9030;50.792;8.320;2022-12-08T07:29:44;21.00;;;14.33;;
17812;SDS011;9030;50.792;8.320;2022-12-08T07:32:11;20.43;;;13.47;;
17812;SDS011;9030;50.792;8.320;2022-12-08T07:34:59;19.87;;;16.10;;
17812;SDS011;9030;50.792;8.320;2022-12-08T07:37:26;20.27;;;16.57;;
17812;SDS011;9030;50.792;8.320;2022-12-08T07:39:53;18.87;;;14.43;;
17812;SDS011;9030;50.792;8.320;2022-12-08T07:42:20;21.73;;;17.73;;
17812;SDS011;9030;50.792;8.320;2022-12-08T07:44:47;24.17;;;19.53;;
17812;SDS011;9030;50.792;8.320;2022-12-08T07:47:14;24.57;;;19.17;;
17812;SDS011;9030;50.792;8.320;2022-12-08T07:49:41;21.13;;;17.57;;
17812;SDS011;9030;50.792;8.320;2022-12-08T07:52:10;24.40;;;21.77;;
17812;SDS011;9030;50.792;8.320;2022-12-08T07:54:37;26.33;;;20.97;;
17812;SDS011;9030;50.792;8.320;2022-12-08T07:57:04;30.60;;;26.27;;
17812;SDS011;9030;50.792;8.320;2022-12-08T07:59:33;32.40;;;28.87;;
17812;SDS011;9030;50.792;8.320;2022-12-08T08:02:00;30.67;;;23.27;;
17812;SDS011;9030;50.792;8.320;2022-12-08T08:04:27;25.53;;;19.97;;
17812;SDS011;9030;50.792;8.320;2022-12-08T08:06:54;45.07;;;40.27;;
17812;SDS011;9030;50.792;8.320;2022-12-08T08:09:22;32.00;;;26.63;;
17812;SDS011;9030;50.792;8.320;2022-12-08T08:11:49;39.33;;;29.33;;
17812;SDS011;9030;50.792;8.320;2022-12-08T08:14:18;29.60;;;25.83;;
17812;SDS011;9030;50.792;8.320;2022-12-08T08:16:44;28.10;;;23.73;;
17812;SDS011;9030;50.792;8.320;2022-12-08T08:19:11;27.27;;;24.43;;
17812;SDS011;9030;50.792;8.320;2022-12-08T08:21:38;29.33;;;26.30;;
17812;SDS011;9030;50.792;8.320;2022-12-08T08:24:05;24.20;;;21.77;;
17812;SDS011;9030;50.792;8.320;2022-12-08T08:26:33;24.53;;;21.93;;
17812;SDS011;9030;50.792;8.320;2022-12-08T08:29:00;25.70;;;20.07;;
17812;SDS011;9030;50.792;8.320;2022-12-08T08:31:27;22.97;;;17.67;;
17812;SDS011;9030;50.792;8.320;2022-12-08T08:33:54;31.30;;;25.30;;
17812;SDS011;9030;50.792;8.320;2022-12-08T08:36:21;26.70;;;23.90;;
17812;SDS011;9030;50.792;8.320;2022-12-08T08:38:48;31.07;;;27.73;;
17812;SDS011;9030;50.792;8.320;2022-12-08T08:41:15;27.70;;;24.00;;
17812;SDS011;9030;50.792;8.320;2022-12-08T08:43:43;26.10;;;22.57;;
17812;SDS011;9030;50.792;8.320;2022-12-08T08:46:10;46.80;;;42.03;;
17812;SDS011;9030;50.792;8.320;2022-12-08T08:48:36;26.17;;;21.47;;
17812;SDS011;9030;50.792;8.320;2022-12-08T08:51:07;22.53;;;20.13;;
17812;SDS011;9030;50.792;8.320;2022-12-08T08:53:35;24.83;;;20.80;;
17812;SDS011;9030;50.792;8.320;2022-12-08T08:56:03;24.83;;;22.30;;
17812;SDS011;9030;50.792;8.320;2022-12-08T08:58:34;24.30;;;18.23;;
17812;SDS011;9030;50.792;8.320;2022-12-08T09:01:02;34.53;;;30.90;;
17812;SDS011;9030;50.792;8.320;2022-12-08T09:03:29;27.67;;;24.77;;
17812;SDS011;9030;50.792;8.320;2022-12-08T09:05:56;23.20;;;20.80;;
17812;SDS011;9030;50.792;8.320;2022-12-08T09:08:23;26.27;;;23.33;;
17812;SDS011;9030;50.792;8.320;2022-12-08T09:10:50;38.20;;;30.13;;
17812;SDS011;9030;50.792;8.320;2022-12-08T09:13:17;23.50;;;21.03;;
17812;SDS011;9030;50.792;8.320;2022-12-08T09:15:44;29.37;;;22.13;;
17812;SDS011;9030;50.792;8.320;2022-12-08T09:18:12;21.53;;;19.07;;
17812;SDS011;9030;50.792;8.320;2022-12-08T09:20:39;29.67;;;26.43;;
17812;SDS011;9030;50.792;8.320;2022-12-08T09:23:06;33.00;;;27.77;;
17812;SDS011;9030;50.792;8.320;2022-12-08T09:25:32;22.77;;;19.07;;
17812;SDS011;9030;50.792;8.320;2022-12-08T09:27:59;21.43;;;19.00;;
17812;SDS011;9030;50.792;8.320;2022-12-08T09:30:26;21.53;;;16.50;;
17812;SDS011;9030;50.792;8.320;2022-12-08T09:32:53;21.13;;;17.60;;
17812;SDS011;9030;50.792;8.320;2022-12-08T09:35:21;21.60;;;18.47;;
17812;SDS011;9030;50.792;8.320;2022-12-08T09:37:48;23.73;;;17.30;;
17812;SDS011;9030;50.792;8.320;2022-12-08T09:40:16;21.83;;;19.20;;
17812;SDS011;9030;50.792;8.320;2022-12-08T09:42:46;19.30;;;16.97;;
17812;SDS011;9030;50.792;8.320;2022-12-08T09:45:18;24.50;;;22.03;;
17812;SDS011;9030;50.792;8.320;2022-12-08T09:47:46;20.40;;;17.30;;
17812;SDS011;9030;50.792;8.320;2022-12-08T09:50:26;21.07;;;16.40;;
17812;SDS011;9030;50.792;8.320;2022-12-08T09:52:58;21.33;;;17.63;;
17812;SDS011;9030;50.792;8.320;2022-12-08T09:55:32;22.23;;;20.07;;
17812;SDS011;9030;50.792;8.320;2022-12-08T09:58:05;17.03;;;14.43;;
17812;SDS011;9030;50.792;8.320;2022-12-08T10:00:40;23.87;;;21.20;;
17812;SDS011;9030;50.792;8.320;2022-12-08T10:03:08;20.63;;;16.77;;
17812;SDS011;9030;50.792;8.320;2022-12-08T10:05:38;24.63;;;22.37;;
17812;SDS011;9030;50.792;8.320;2022-12-08T10:08:11;18.87;;;16.47;;
17812;SDS011;9030;50.792;8.320;2022-12-08T10:10:45;17.63;;;15.40;;
17812;SDS011;9030;50.792;8.320;2022-12-08T10:13:15;17.07;;;12.80;;
17812;SDS011;9030;50.792;8.320;2022-12-08T10:15:49;20.10;;;16.07;;
17812;SDS011;9030;50.792;8.320;2022-12-08T10:18:24;15.27;;;13.33;;
17812;SDS011;9030;50.792;8.320;2022-12-08T10:20:56;15.97;;;12.47;;
17812;SDS011;9030;50.792;8.320;2022-12-08T10:23:31;15.10;;;11.07;;
17812;SDS011;9030;50.792;8.320;2022-12-08T10:26:01;19.13;;;16.30;;
17812;SDS011;9030;50.792;8.320;2022-12-08T10:28:31;18.60;;;14.67;;
17812;SDS011;9030;50.792;8.320;2022-12-08T10:30:59;21.00;;;18.27;;
17812;SDS011;9030;50.792;8.320;2022-12-08T10:33:26;15.80;;;13.93;;
17812;SDS011;9030;50.792;8.320;2022-12-08T10:35:56;17.40;;;14.10;;
17812;SDS011;9030;50.792;8.320;2022-12-08T10:38:26;17.63;;;15.73;;
17812;SDS011;9030;50.792;8.320;2022-12-08T10:40:56;20.07;;;17.97;;
17812;SDS011;9030;50.792;8.320;2022-12-08T10:43:28;14.03;;;10.83;;
17812;SDS011;9030;50.792;8.320;2022-12-08T10:46:05;17.00;;;12.13;;
17812;SDS011;9030;50.792;8.320;2022-12-08T10:48:34;20.37;;;16.87;;
17812;SDS011;9030;50.792;8.320;2022-12-08T10:51:03;22.67;;;17.03;;
17812;SDS011;9030;50.792;8.320;2022-12-08T10:53:30;20.93;;;15.03;;
17812;SDS011;9030;50.792;8.320;2022-12-08T10:56:05;17.57;;;14.13;;
17812;SDS011;9030;50.792;8.320;2022-12-08T10:58:40;25.53;;;22.57;;
17812;SDS011;9030;50.792;8.320;2022-12-08T11:01:09;18.77;;;13.80;;
17812;SDS011;9030;50.792;8.320;2022-12-08T11:03:40;18.87;;;16.43;;
17812;SDS011;9030;50.792;8.320;2022-12-08T11:06:14;14.07;;;10.83;;
17812;SDS011;9030;50.792;8.320;2022-12-08T11:08:44;17.93;;;14.03;;
17812;SDS011;9030;50.792;8.320;2022-12-08T11:11:14;15.83;;;11.30;;
17812;SDS011;9030;50.792;8.320;2022-12-08T11:13:41;15.40;;;11.30;;
17812;SDS011;9030;50.792;8.320;2022-12-08T11:16:09;18.03;;;15.60;;
17812;SDS011;9030;50.792;8.320;2022-12-08T11:18:39;17.43;;;12.73;;
17812;SDS011;9030;50.792;8.320;2022-12-08T11:21:09;17.17;;;14.57;;
17812;SDS011;9030;50.792;8.320;2022-12-08T11:23:40;17.23;;;13.93;;
17812;SDS011;9030;50.792;8.320;2022-12-08T11:26:10;15.30;;;11.67;;
17812;SDS011;9030;50.792;8.320;2022-12-08T11:28:42;12.47;;;9.80;;
17812;SDS011;9030;50.792;8.320;2022-12-08T11:31:12;15.13;;;12.13;;
17812;SDS011;9030;50.792;8.320;2022-12-08T11:33:47;13.63;;;10.87;;
17812;SDS011;9030;50.792;8.320;2022-12-08T11:36:16;13.87;;;11.47;;
17812;SDS011;9030;50.792;8.320;2022-12-08T11:38:46;12.97;;;9.70;;
17812;SDS011;9030;50.792;8.320;2022-12-08T11:41:16;12.53;;;9.27;;
17812;SDS011;9030;50.792;8.320;2022-12-08T11:43:45;20.10;;;17.27;;
17812;SDS011;9030;50.792;8.320;2022-12-08T11:46:18;17.63;;;13.40;;
17812;SDS011;9030;50.792;8.320;2022-12-08T11:48:51;13.83;;;10.73;;
17812;SDS011;9030;50.792;8.320;2022-12-08T11:51:27;8.93;;;5.73;;
17812;SDS011;9030;50.792;8.320;2022-12-08T11:54:12;12.20;;;7.00;;
17812;SDS011;9030;50.792;8.320;2022-12-08T11:56:46;15.17;;;10.17;;
17812;SDS011;9030;50.792;8.320;2022-12-08T11:59:17;13.27;;;10.33;;
17812;SDS011;9030;50.792;8.320;2022-12-08T12:01:50;12.70;;;10.23;;
17812;SDS011;9030;50.792;8.320;2022-12-08T12:04:19;13.13;;;10.80;;
17812;SDS011;9030;50.792;8.320;2022-12-08T12:07:01;12.03;;;8.60;;
17812;SDS011;9030;50.792;8.320;2022-12-08T12:09:50;10.90;;;8.23;;
17812;SDS011;9030;50.792;8.320;2022-12-08T12:12:32;17.20;;;13.13;;
17812;SDS011;9030;50.792;8.320;2022-12-08T12:15:24;11.77;;;9.10;;
17812;SDS011;9030;50.792;8.320;2022-12-08T12:18:15;13.40;;;8.97;;
17812;SDS011;9030;50.792;8.320;2022-12-08T12:20:51;15.33;;;11.53;;
17812;SDS011;9030;50.792;8.320;2022-12-08T12:23:21;10.30;;;6.97;;
17812;SDS011;9030;50.792;8.320;2022-12-08T12:25:57;12.53;;;7.07;;
17812;SDS011;9030;50.792;8.320;2022-12-08T12:28:25;10.87;;;7.27;;
17812;SDS011;9030;50.792;8.320;2022-12-08T12:30:56;20.17;;;18.23;;
17812;SDS011;9030;50.792;8.320;2022-12-08T12:33:29;20.20;;;16.53;;
17812;SDS011;9030;50.792;8.320;2022-12-08T12:35:56;15.50;;;10.37;;
17812;SDS011;9030;50.792;8.320;2022-12-08T12:38:29;13.33;;;9.37;;
17812;SDS011;9030;50.792;8.320;2022-12-08T12:41:21;12.77;;;8.93;;
17812;SDS011;9030;50.792;8.320;2022-12-08T12:44:07;14.00;;;10.63;;
17812;SDS011;9030;50.792;8.320;2022-12-08T12:46:56;13.10;;;7.77;;
17812;SDS011;9030;50.792;8.320;2022-12-08T12:55:22;14.57;;;10.67;;
17812;SDS011;9030;50.792;8.320;2022-12-08T12:57:52;15.77;;;10.77;;
17812;SDS011;9030;50.792;8.320;2022-12-08T13:00:21;14.67;;;11.47;;
17812;SDS011;9030;50.792;8.320;2022-12-08T13:02:49;12.60;;;9.30;;
17812;SDS011;9030;50.792;8.320;2022-12-08T13:05:18;13.50;;;7.87;;
17812;SDS011;9030;50.792;8.320;2022-12-08T13:07:49;23.73;;;18.70;;
17812;SDS011;9030;50.792;8.320;2022-12-08T13:10:19;16.93;;;13.77;;
17812;SDS011;9030;50.792;8.320;2022-12-08T13:13:02;12.27;;;9.63;;
17812;SDS011;9030;50.792;8.320;2022-12-08T13:15:32;16.00;;;10.00;;
17812;SDS011;9030;50.792;8.320;2022-12-08T13:18:00;18.60;;;14.37;;
17812;SDS011;9030;50.792;8.320;2022-12-08T13:20:28;17.83;;;10.90;;
17812;SDS011;9030;50.792;8.320;2022-12-08T13:23:02;13.50;;;8.67;;
17812;SDS011;9030;50.792;8.320;2022-12-08T13:31:49;13.87;;;7.67;;
17812;SDS011;9030;50.792;8.320;2022-12-08T13:34:19;13.77;;;8.00;;
17812;SDS011;9030;50.792;8.320;2022-12-08T13:37:00;14.03;;;8.37;;
17812;SDS011;9030;50.792;8.320;2022-12-08T13:39:33;13.20;;;6.77;;
17812;SDS011;9030;50.792;8.320;2022-12-08T13:42:11;16.57;;;12.50;;
17812;SDS011;9030;50.792;8.320;2022-12-08T13:44:45;41.13;;;30.90;;
17812;SDS011;9030;50.792;8.320;2022-12-08T13:47:17;14.83;;;8.60;;
17812;SDS011;9030;50.792;8.320;2022-12-08T13:49:48;14.33;;;8.77;;
17812;SDS011;9030;50.792;8.320;2022-12-08T13:52:20;14.77;;;7.47;;
17812;SDS011;9030;50.792;8.320;2022-12-08T13:54:57;16.47;;;10.30;;
17812;SDS011;9030;50.792;8.320;2022-12-08T13:57:29;11.70;;;6.87;;
17812;SDS011;9030;50.792;8.320;2022-12-08T13:59:58;11.03;;;5.67;;
17812;SDS011;9030;50.792;8.320;2022-12-08T14:02:28;11.27;;;6.40;;
17812;SDS011;9030;50.792;8.320;2022-12-08T14:04:59;24.07;;;18.77;;
17812;SDS011;9030;50.792;8.320;2022-12-08T14:07:26;17.60;;;8.97;;
17812;SDS011;9030;50.792;8.320;2022-12-08T14:09:52;14.93;;;11.97;;
17812;SDS011;9030;50.792;8.320;2022-12-08T14:12:20;14.10;;;10.23;;
17812;SDS011;9030;50.792;8.320;2022-12-08T14:14:49;23.17;;;13.93;;
17812;SDS011;9030;50.792;8.320;2022-12-08T14:17:19;15.83;;;10.57;;
17812;SDS011;9030;50.792;8.320;2022-12-08T14:19:53;13.17;;;8.03;;
17812;SDS011;9030;50.792;8.320;2022-12-08T14:22:30;17.43;;;9.57;;
17812;SDS011;9030;50.792;8.320;2022-12-08T14:24:58;19.50;;;12.50;;
17812;SDS011;9030;50.792;8.320;2022-12-08T14:27:25;18.80;;;15.07;;
17812;SDS011;9030;50.792;8.320;2022-12-08T14:29:59;17.07;;;8.80;;
17812;SDS011;9030;50.792;8.320;2022-12-08T14:32:27;18.77;;;12.63;;
17812;SDS011;9030;50.792;8.320;2022-12-08T14:34:59;15.83;;;9.33;;
17812;SDS011;9030;50.792;8.320;2022-12-08T14:37:28;16.00;;;9.23;;
17812;SDS011;9030;50.792;8.320;2022-12-08T14:39:59;10.53;;;6.30;;
17812;SDS011;9030;50.792;8.320;2022-12-08T14:42:29;15.20;;;6.67;;
17812;SDS011;9030;50.792;8.320;2022-12-08T14:45:00;13.50;;;8.17;;
17812;SDS011;9030;50.792;8.320;2022-12-08T14:47:30;12.70;;;6.47;;
17812;SDS011;9030;50.792;8.320;2022-12-08T14:49:59;10.47;;;4.97;;
17812;SDS011;9030;50.792;8.320;2022-12-08T14:52:27;12.10;;;4.93;;
17812;SDS011;9030;50.792;8.320;2022-12-08T14:54:54;11.53;;;5.30;;
17812;SDS011;9030;50.792;8.320;2022-12-08T14:57:26;15.20;;;9.83;;
17812;SDS011;9030;50.792;8.320;2022-12-08T14:59:57;16.13;;;9.60;;
17812;SDS011;9030;50.792;8.320;2022-12-08T15:02:32;12.57;;;6.90;;
17812;SDS011;9030;50.792;8.320;2022-12-08T15:05:08;13.43;;;5.93;;
17812;SDS011;9030;50.792;8.320;2022-12-08T15:07:43;14.97;;;7.97;;
17812;SDS011;9030;50.792;8.320;2022-12-08T15:10:25;25.77;;;19.20;;
17812;SDS011;9030;50.792;8.320;2022-12-08T15:12:57;16.43;;;11.00;;
17812;SDS011;9030;50.792;8.320;2022-12-08T15:15:25;20.50;;;12.63;;
17812;SDS011;9030;50.792;8.320;2022-12-08T15:17:57;18.03;;;12.73;;
17812;SDS011;9030;50.792;8.320;2022-12-08T15:20:31;23.47;;;19.13;;
17812;SDS011;9030;50.792;8.320;2022-12-08T15:23:09;23.90;;;16.53;;
17812;SDS011;9030;50.792;8.320;2022-12-08T15:25:45;15.87;;;11.20;;
17812;SDS011;9030;50.792;8.320;2022-12-08T15:28:12;18.63;;;13.87;;
17812;SDS011;9030;50.792;8.320;2022-12-08T15:30:40;25.43;;;15.47;;
17812;SDS011;9030;50.792;8.320;2022-12-08T15:33:07;19.10;;;13.87;;
17812;SDS011;9030;50.792;8.320;2022-12-08T15:35:35;24.47;;;19.03;;
17812;SDS011;9030;50.792;8.320;2022-12-08T15:38:02;21.93;;;14.13;;
17812;SDS011;9030;50.792;8.320;2022-12-08T15:40:30;20.90;;;13.10;;
17812;SDS011;9030;50.792;8.320;2022-12-08T15:42:57;18.20;;;13.40;;
17812;SDS011;9030;50.792;8.320;2022-12-08T15:45:26;15.73;;;9.73;;
17812;SDS011;9030;50.792;8.320;2022-12-08T15:47:55;14.67;;;10.17;;
17812;SDS011;9030;50.792;8.320;2022-12-08T15:50:22;19.13;;;12.00;;
17812;SDS011;9030;50.792;8.320;2022-12-08T15:52:50;18.90;;;14.77;;
17812;SDS011;9030;50.792;8.320;2022-12-08T15:55:18;20.33;;;14.27;;
17812;SDS011;9030;50.792;8.320;2022-12-08T15:57:46;20.87;;;15.60;;
17812;SDS011;9030;50.792;8.320;2022-12-08T16:00:34;24.77;;;18.90;;
17812;SDS011;9030;50.792;8.320;2022-12-08T16:03:02;22.67;;;17.20;;
17812;SDS011;9030;50.792;8.320;2022-12-08T16:05:29;21.77;;;16.80;;
17812;SDS011;9030;50.792;8.320;2022-12-08T16:07:58;24.40;;;16.80;;
17812;SDS011;9030;50.792;8.320;2022-12-08T16:10:25;24.67;;;16.43;;
17812;SDS011;9030;50.792;8.320;2022-12-08T16:12:52;29.57;;;22.00;;
17812;SDS011;9030;50.792;8.320;2022-12-08T16:15:37;27.57;;;21.50;;
17812;SDS011;9030;50.792;8.320;2022-12-08T16:18:06;34.70;;;25.17;;
17812;SDS011;9030;50.792;8.320;2022-12-08T16:20:38;31.67;;;24.70;;
17812;SDS011;9030;50.792;8.320;2022-12-08T16:23:07;30.93;;;21.97;;
17812;SDS011;9030;50.792;8.320;2022-12-08T16:25:33;33.87;;;25.50;;
17812;SDS011;9030;50.792;8.320;2022-12-08T16:28:00;24.97;;;19.43;;
17812;SDS011;9030;50.792;8.320;2022-12-08T16:30:27;21.37;;;13.73;;
17812;SDS011;9030;50.792;8.320;2022-12-08T16:32:54;17.37;;;12.87;;
17812;SDS011;9030;50.792;8.320;2022-12-08T16:35:20;50.93;;;40.43;;
17812;SDS011;9030;50.792;8.320;2022-12-08T16:37:48;41.47;;;31.30;;